EGNX/EMA METAR and TAF weather

Enter ICAO airport designator
Station Type Date Time Source
EGNX METAR 2020/03/28 21:20 UTC NOAA

EGNX 282120Z 02012KT 340V050 9999 FEW025 04/M01 Q1037


Station Type Date Time Source
EGNX Decoded METAR 2020/03/28 21:20 UTC NOAA

East Midlands, United Kingdom (EGNX) 52-50N 001-20W
Mar 28, 2020 - 05:20 PM EDT / 2020.03.28 2120 UTC
Wind: from the NNE (020 degrees) at 14 MPH (12 KT) (direction variable):0
Visibility: greater than 7 mile(s):0
Sky conditions: mostly clear
Temperature: 39 F (4 C)
Dew Point: 30 F (-1 C)
Relative Humidity: 69%
Pressure (altimeter): 30.62 in. Hg (1037 hPa)
ob: EGNX 282120Z 02012KT 340V050 9999 FEW025 04/M01 Q1037
cycle: 21

Station Type Date Time Source
EGNX TAF 2020/03/28 18:09 UTC NOAA

TAF EGNX 281705Z 2818/2918 03015KT 9999 SCT035 PROB30
TEMPO 2818/2824 03015G28KT 6000 SHRA PROB30
TEMPO 2900/2910 04015G25KT 4000 SHRASN
TEMPO 2910/2918 03018G28KT PROB30
TEMPO 2910/2918 6000 SHRA

Example: see airport list